Terminal Aerodrome Forecast
Issued by NWS

Home | Current Version | Previous Version | Text Only | Print | Product List | Glossary On
Versions: 1 2 3 4 5 6 7 8 9 10 11 12 13
000
FTUS45 KREV 250521
TAFMMH
TAF
KMMH 250521Z 2506/2606 27009KT P6SM SCT030 BKN060
     FM251800 30008G18KT P6SM VCTS SCT030CB BKN060
     FM260000 29010KT P6SM VCSH OVC050=

USA.gov is the U.S. government's official web portal to all federal, state and local government web resources and services.